Pagina principale
METAR-TAF:

METAR-TAF

Aeroporti :

Aeroporto di Cervia-Pisignano

Cervia, Italia

latitudine: 44-13N, longitudine: 012-18E, altezza: 6 m

Osservazione

Il bollettino è stato emesso 1 ora e 17 minuti fa, alle 03:55 UTC
Vento 2 kt da ovest
Temperature 6°C
Umidità 87%
Pressione 1012 hPa
Visibilità: 1800 m
Nubi sparse ad un'altezza di 600 ft
foschia

METAR: LIPC 210355Z 26002KT 1800 BR SCT006 06/04 Q1012 RMK BKN BKN070 VIS MIN 1800 WIND THR11 /////KT WIND THR29 28002KT YLO

Ora: 06:12 (05:12 UTC)

Previsione

Il bollettino è stato emesso 3 ore e 12 minuti fa, alle 02:00 UTC
Previsione valida dal 21 alle 03 UTC al 21 alle 12 UTC
Vento 5 kt da ovest/sud-ovest
Visibilità: 3000 m
Nubi sparse ad un'altezza di 3000 ft
foschia
Temporaneamente
dal 21 alle 03 UTC al 21 alle 06 UTC
Visibilità: 0300 m
Nuvoloso ad un'altezza di 200 ft
nebbia

TAF: LIPC 210200Z 2103/2112 24005KT 3000 BR SCT030 TEMPO 2103/2106 0300 FG BKN002

Osservazioni e previsioni meteorologiche di più di 4000 aeroporti (messaggi METAR e TAF).

Le stazioni disponibili sono rappresentate dai dischi gialli e rossi sulla carta.

Puntare il mouse per vedere il nome della stazione.

Clicca sopra per visualizzare le osservazioni e previsioni meteorologiche.

Per cambiare la mappa : fare clic sui pulsanti verdi con una croce nera per ingrandire, il pulsante verde con un trattino per diminuire, o sulla freccia verde per le mappe adiacenti.


METAR-TAF: